sensor_id;sensor_type;location;lat;lon;timestamp;P1;durP1;ratioP1;P2;durP2;ratioP2
76053;SDS011;64752;48.870;9.082;2023-04-03T00:01:42;3.50;;;2.07;;
76053;SDS011;64752;48.870;9.082;2023-04-03T00:04:07;4.85;;;2.50;;
76053;SDS011;64752;48.870;9.082;2023-04-03T00:06:32;5.03;;;2.50;;
76053;SDS011;64752;48.870;9.082;2023-04-03T00:08:58;5.22;;;2.42;;
76053;SDS011;64752;48.870;9.082;2023-04-03T00:11:24;5.63;;;2.65;;
76053;SDS011;64752;48.870;9.082;2023-04-03T00:13:50;4.97;;;2.15;;
76053;SDS011;64752;48.870;9.082;2023-04-03T00:16:15;3.72;;;2.25;;
76053;SDS011;64752;48.870;9.082;2023-04-03T00:18:40;4.20;;;2.45;;
76053;SDS011;64752;48.870;9.082;2023-04-03T00:21:06;3.40;;;2.20;;
76053;SDS011;64752;48.870;9.082;2023-04-03T00:23:32;4.22;;;2.13;;
76053;SDS011;64752;48.870;9.082;2023-04-03T00:25:57;4.63;;;2.58;;
76053;SDS011;64752;48.870;9.082;2023-04-03T00:28:23;3.60;;;2.45;;
76053;SDS011;64752;48.870;9.082;2023-04-03T00:30:48;4.72;;;2.53;;
76053;SDS011;64752;48.870;9.082;2023-04-03T00:33:13;4.35;;;2.25;;
76053;SDS011;64752;48.870;9.082;2023-04-03T00:35:39;3.85;;;2.25;;
76053;SDS011;64752;48.870;9.082;2023-04-03T00:38:05;4.88;;;2.45;;
76053;SDS011;64752;48.870;9.082;2023-04-03T00:40:33;4.50;;;2.30;;
76053;SDS011;64752;48.870;9.082;2023-04-03T00:42:58;4.15;;;2.55;;
76053;SDS011;64752;48.870;9.082;2023-04-03T00:47:49;4.95;;;2.72;;
76053;SDS011;64752;48.870;9.082;2023-04-03T00:50:14;6.47;;;2.40;;
76053;SDS011;64752;48.870;9.082;2023-04-03T00:52:40;5.63;;;2.42;;
76053;SDS011;64752;48.870;9.082;2023-04-03T00:55:05;5.45;;;2.38;;
76053;SDS011;64752;48.870;9.082;2023-04-03T00:57:32;8.63;;;2.50;;
76053;SDS011;64752;48.870;9.082;2023-04-03T00:59:59;5.45;;;2.80;;
76053;SDS011;64752;48.870;9.082;2023-04-03T01:02:26;3.38;;;2.47;;
76053;SDS011;64752;48.870;9.082;2023-04-03T01:04:51;3.88;;;2.30;;
76053;SDS011;64752;48.870;9.082;2023-04-03T01:07:21;3.43;;;2.13;;
76053;SDS011;64752;48.870;9.082;2023-04-03T01:09:47;5.28;;;2.35;;
76053;SDS011;64752;48.870;9.082;2023-04-03T01:14:44;4.05;;;2.20;;
76053;SDS011;64752;48.870;9.082;2023-04-03T01:22:34;5.07;;;2.80;;
76053;SDS011;64752;48.870;9.082;2023-04-03T01:25:05;5.80;;;2.60;;
76053;SDS011;64752;48.870;9.082;2023-04-03T01:27:30;4.78;;;2.70;;
76053;SDS011;64752;48.870;9.082;2023-04-03T01:29:55;9.15;;;2.47;;
76053;SDS011;64752;48.870;9.082;2023-04-03T01:32:20;5.55;;;2.60;;
76053;SDS011;64752;48.870;9.082;2023-04-03T01:34:46;3.67;;;2.15;;
76053;SDS011;64752;48.870;9.082;2023-04-03T01:37:11;5.90;;;2.72;;
76053;SDS011;64752;48.870;9.082;2023-04-03T01:39:36;8.98;;;2.42;;
76053;SDS011;64752;48.870;9.082;2023-04-03T01:42:01;5.25;;;2.17;;
76053;SDS011;64752;48.870;9.082;2023-04-03T01:44:28;8.98;;;2.75;;
76053;SDS011;64752;48.870;9.082;2023-04-03T01:46:53;4.78;;;2.33;;
76053;SDS011;64752;48.870;9.082;2023-04-03T01:49:19;5.90;;;2.30;;
76053;SDS011;64752;48.870;9.082;2023-04-03T01:51:44;6.65;;;2.80;;
76053;SDS011;64752;48.870;9.082;2023-04-03T01:54:09;4.57;;;2.55;;
76053;SDS011;64752;48.870;9.082;2023-04-03T01:56:34;4.10;;;2.55;;
76053;SDS011;64752;48.870;9.082;2023-04-03T01:58:59;4.80;;;2.53;;
76053;SDS011;64752;48.870;9.082;2023-04-03T02:01:25;4.43;;;2.88;;
76053;SDS011;64752;48.870;9.082;2023-04-03T02:03:50;9.95;;;2.90;;
76053;SDS011;64752;48.870;9.082;2023-04-03T02:06:16;5.18;;;2.72;;
76053;SDS011;64752;48.870;9.082;2023-04-03T02:08:41;5.22;;;2.65;;
76053;SDS011;64752;48.870;9.082;2023-04-03T02:11:06;3.40;;;2.38;;
76053;SDS011;64752;48.870;9.082;2023-04-03T02:13:31;4.63;;;2.92;;
76053;SDS011;64752;48.870;9.082;2023-04-03T02:15:57;4.82;;;2.63;;
76053;SDS011;64752;48.870;9.082;2023-04-03T02:18:22;6.00;;;2.72;;
76053;SDS011;64752;48.870;9.082;2023-04-03T02:20:47;4.03;;;2.40;;
76053;SDS011;64752;48.870;9.082;2023-04-03T02:23:12;4.78;;;2.90;;
76053;SDS011;64752;48.870;9.082;2023-04-03T02:25:38;3.88;;;2.58;;
76053;SDS011;64752;48.870;9.082;2023-04-03T02:28:03;6.78;;;2.53;;
76053;SDS011;64752;48.870;9.082;2023-04-03T02:30:28;5.60;;;2.65;;
76053;SDS011;64752;48.870;9.082;2023-04-03T02:32:53;4.72;;;2.40;;
76053;SDS011;64752;48.870;9.082;2023-04-03T02:35:19;3.63;;;2.38;;
76053;SDS011;64752;48.870;9.082;2023-04-03T02:37:45;5.00;;;2.53;;
76053;SDS011;64752;48.870;9.082;2023-04-03T02:40:10;5.72;;;2.70;;
76053;SDS011;64752;48.870;9.082;2023-04-03T02:42:36;6.47;;;2.42;;
76053;SDS011;64752;48.870;9.082;2023-04-03T02:45:01;3.88;;;2.40;;
76053;SDS011;64752;48.870;9.082;2023-04-03T02:47:27;3.70;;;2.28;;
76053;SDS011;64752;48.870;9.082;2023-04-03T02:49:52;4.53;;;2.60;;
76053;SDS011;64752;48.870;9.082;2023-04-03T02:52:18;3.60;;;2.10;;
76053;SDS011;64752;48.870;9.082;2023-04-03T02:54:43;3.85;;;2.22;;
76053;SDS011;64752;48.870;9.082;2023-04-03T02:57:08;3.63;;;2.15;;
76053;SDS011;64752;48.870;9.082;2023-04-03T02:59:36;2.95;;;2.00;;
76053;SDS011;64752;48.870;9.082;2023-04-03T03:02:05;3.83;;;2.13;;
76053;SDS011;64752;48.870;9.082;2023-04-03T03:04:30;4.78;;;2.35;;
76053;SDS011;64752;48.870;9.082;2023-04-03T03:06:56;5.47;;;2.10;;
76053;SDS011;64752;48.870;9.082;2023-04-03T03:09:21;4.78;;;2.30;;
76053;SDS011;64752;48.870;9.082;2023-04-03T03:11:46;4.38;;;2.00;;
76053;SDS011;64752;48.870;9.082;2023-04-03T03:14:11;6.13;;;2.20;;
76053;SDS011;64752;48.870;9.082;2023-04-03T03:16:36;5.22;;;2.13;;
76053;SDS011;64752;48.870;9.082;2023-04-03T03:19:02;4.03;;;2.38;;
76053;SDS011;64752;48.870;9.082;2023-04-03T03:21:27;3.20;;;1.77;;
76053;SDS011;64752;48.870;9.082;2023-04-03T03:23:52;4.15;;;2.10;;
76053;SDS011;64752;48.870;9.082;2023-04-03T03:26:17;4.10;;;2.22;;
76053;SDS011;64752;48.870;9.082;2023-04-03T03:28:43;6.07;;;2.50;;
76053;SDS011;64752;48.870;9.082;2023-04-03T03:31:09;4.32;;;2.03;;
76053;SDS011;64752;48.870;9.082;2023-04-03T03:33:35;5.03;;;2.25;;
76053;SDS011;64752;48.870;9.082;2023-04-03T03:36:01;4.38;;;2.03;;
76053;SDS011;64752;48.870;9.082;2023-04-03T03:38:26;3.40;;;2.10;;
76053;SDS011;64752;48.870;9.082;2023-04-03T03:40:51;6.03;;;2.00;;
76053;SDS011;64752;48.870;9.082;2023-04-03T03:43:17;3.72;;;2.45;;
76053;SDS011;64752;48.870;9.082;2023-04-03T03:45:42;4.18;;;2.28;;
76053;SDS011;64752;48.870;9.082;2023-04-03T03:48:07;5.90;;;2.72;;
76053;SDS011;64752;48.870;9.082;2023-04-03T03:50:33;5.53;;;2.00;;
76053;SDS011;64752;48.870;9.082;2023-04-03T03:52:58;3.65;;;2.15;;
76053;SDS011;64752;48.870;9.082;2023-04-03T03:55:23;3.58;;;2.13;;
76053;SDS011;64752;48.870;9.082;2023-04-03T03:57:49;4.82;;;2.22;;
76053;SDS011;64752;48.870;9.082;2023-04-03T04:00:14;4.20;;;2.00;;
76053;SDS011;64752;48.870;9.082;2023-04-03T04:02:39;3.75;;;2.15;;
76053;SDS011;64752;48.870;9.082;2023-04-03T04:05:05;3.35;;;2.00;;
76053;SDS011;64752;48.870;9.082;2023-04-03T04:07:30;5.57;;;2.33;;
76053;SDS011;64752;48.870;9.082;2023-04-03T04:09:55;3.60;;;1.85;;
76053;SDS011;64752;48.870;9.082;2023-04-03T04:12:20;3.83;;;1.90;;
76053;SDS011;64752;48.870;9.082;2023-04-03T04:14:46;3.88;;;1.88;;
76053;SDS011;64752;48.870;9.082;2023-04-03T04:17:12;4.05;;;2.25;;
76053;SDS011;64752;48.870;9.082;2023-04-03T04:19:37;3.38;;;2.38;;
76053;SDS011;64752;48.870;9.082;2023-04-03T04:22:03;4.88;;;2.80;;
76053;SDS011;64752;48.870;9.082;2023-04-03T04:24:28;5.72;;;2.10;;
76053;SDS011;64752;48.870;9.082;2023-04-03T04:26:53;5.80;;;2.05;;
76053;SDS011;64752;48.870;9.082;2023-04-03T04:29:18;5.07;;;2.20;;
76053;SDS011;64752;48.870;9.082;2023-04-03T04:31:43;3.80;;;2.30;;
76053;SDS011;64752;48.870;9.082;2023-04-03T04:34:09;6.60;;;2.42;;
76053;SDS011;64752;48.870;9.082;2023-04-03T04:36:34;3.22;;;2.15;;
76053;SDS011;64752;48.870;9.082;2023-04-03T04:39:00;5.00;;;2.95;;
76053;SDS011;64752;48.870;9.082;2023-04-03T04:41:25;3.75;;;2.25;;
76053;SDS011;64752;48.870;9.082;2023-04-03T04:43:51;3.65;;;1.65;;
76053;SDS011;64752;48.870;9.082;2023-04-03T04:46:16;3.53;;;1.83;;
76053;SDS011;64752;48.870;9.082;2023-04-03T04:48:42;3.50;;;2.08;;
76053;SDS011;64752;48.870;9.082;2023-04-03T04:51:07;6.28;;;2.03;;
76053;SDS011;64752;48.870;9.082;2023-04-03T04:53:32;4.93;;;2.25;;
76053;SDS011;64752;48.870;9.082;2023-04-03T04:55:58;5.40;;;2.40;;
76053;SDS011;64752;48.870;9.082;2023-04-03T04:58:23;2.00;;;1.80;;
76053;SDS011;64752;48.870;9.082;2023-04-03T05:00:48;4.20;;;1.88;;
76053;SDS011;64752;48.870;9.082;2023-04-03T05:03:14;4.18;;;2.38;;
76053;SDS011;64752;48.870;9.082;2023-04-03T05:05:39;5.10;;;2.33;;
76053;SDS011;64752;48.870;9.082;2023-04-03T05:08:04;3.72;;;2.00;;
76053;SDS011;64752;48.870;9.082;2023-04-03T05:10:30;6.32;;;1.77;;
76053;SDS011;64752;48.870;9.082;2023-04-03T05:12:56;4.05;;;2.13;;
76053;SDS011;64752;48.870;9.082;2023-04-03T05:15:21;4.60;;;2.58;;
76053;SDS011;64752;48.870;9.082;2023-04-03T05:17:46;4.13;;;2.00;;
76053;SDS011;64752;48.870;9.082;2023-04-03T05:20:11;4.07;;;2.10;;
76053;SDS011;64752;48.870;9.082;2023-04-03T05:22:37;5.90;;;2.50;;
76053;SDS011;64752;48.870;9.082;2023-04-03T05:25:02;3.03;;;1.88;;
76053;SDS011;64752;48.870;9.082;2023-04-03T05:27:27;4.10;;;2.25;;
76053;SDS011;64752;48.870;9.082;2023-04-03T05:29:53;4.30;;;1.77;;
76053;SDS011;64752;48.870;9.082;2023-04-03T05:32:19;5.22;;;2.10;;
76053;SDS011;64752;48.870;9.082;2023-04-03T05:34:44;5.03;;;2.13;;
76053;SDS011;64752;48.870;9.082;2023-04-03T05:37:09;2.92;;;2.03;;
76053;SDS011;64752;48.870;9.082;2023-04-03T05:39:35;6.28;;;2.47;;
76053;SDS011;64752;48.870;9.082;2023-04-03T05:42:00;4.85;;;2.40;;
76053;SDS011;64752;48.870;9.082;2023-04-03T05:44:25;4.07;;;2.35;;
76053;SDS011;64752;48.870;9.082;2023-04-03T05:46:51;5.03;;;2.80;;
76053;SDS011;64752;48.870;9.082;2023-04-03T05:49:18;4.80;;;2.17;;
76053;SDS011;64752;48.870;9.082;2023-04-03T05:51:44;6.03;;;2.07;;
76053;SDS011;64752;48.870;9.082;2023-04-03T05:54:17;4.67;;;2.00;;
76053;SDS011;64752;48.870;9.082;2023-04-03T05:56:43;5.32;;;2.30;;
76053;SDS011;64752;48.870;9.082;2023-04-03T05:59:09;6.03;;;2.15;;
76053;SDS011;64752;48.870;9.082;2023-04-03T06:01:34;4.85;;;2.40;;
76053;SDS011;64752;48.870;9.082;2023-04-03T06:04:00;4.63;;;2.00;;
76053;SDS011;64752;48.870;9.082;2023-04-03T06:06:25;5.20;;;2.40;;
76053;SDS011;64752;48.870;9.082;2023-04-03T06:08:50;4.47;;;2.25;;
76053;SDS011;64752;48.870;9.082;2023-04-03T06:11:16;3.55;;;2.22;;
76053;SDS011;64752;48.870;9.082;2023-04-03T06:13:41;5.88;;;2.65;;
76053;SDS011;64752;48.870;9.082;2023-04-03T06:16:07;7.05;;;2.10;;
76053;SDS011;64752;48.870;9.082;2023-04-03T06:18:34;4.25;;;2.20;;
76053;SDS011;64752;48.870;9.082;2023-04-03T06:21:00;4.72;;;2.13;;
76053;SDS011;64752;48.870;9.082;2023-04-03T06:23:25;3.60;;;2.15;;
76053;SDS011;64752;48.870;9.082;2023-04-03T06:25:51;4.90;;;2.08;;
76053;SDS011;64752;48.870;9.082;2023-04-03T06:28:16;6.85;;;2.33;;
76053;SDS011;64752;48.870;9.082;2023-04-03T06:30:41;4.25;;;2.13;;
76053;SDS011;64752;48.870;9.082;2023-04-03T06:33:07;4.75;;;2.15;;
76053;SDS011;64752;48.870;9.082;2023-04-03T06:35:32;5.88;;;2.28;;
76053;SDS011;64752;48.870;9.082;2023-04-03T06:37:59;4.55;;;2.10;;
76053;SDS011;64752;48.870;9.082;2023-04-03T06:40:25;6.53;;;2.13;;
76053;SDS011;64752;48.870;9.082;2023-04-03T06:42:51;3.67;;;2.03;;
76053;SDS011;64752;48.870;9.082;2023-04-03T06:45:16;4.35;;;2.00;;
76053;SDS011;64752;48.870;9.082;2023-04-03T06:47:41;8.70;;;2.17;;
76053;SDS011;64752;48.870;9.082;2023-04-03T06:50:07;4.10;;;1.77;;
76053;SDS011;64752;48.870;9.082;2023-04-03T06:52:33;4.15;;;2.10;;
76053;SDS011;64752;48.870;9.082;2023-04-03T06:54:59;5.03;;;2.00;;
76053;SDS011;64752;48.870;9.082;2023-04-03T06:57:25;3.93;;;2.23;;
76053;SDS011;64752;48.870;9.082;2023-04-03T06:59:50;4.22;;;2.10;;
76053;SDS011;64752;48.870;9.082;2023-04-03T07:02:16;3.78;;;1.90;;
76053;SDS011;64752;48.870;9.082;2023-04-03T07:04:41;5.65;;;2.00;;
76053;SDS011;64752;48.870;9.082;2023-04-03T07:07:06;6.28;;;2.20;;
76053;SDS011;64752;48.870;9.082;2023-04-03T07:09:32;6.25;;;2.40;;
76053;SDS011;64752;48.870;9.082;2023-04-03T07:11:57;4.10;;;1.98;;
76053;SDS011;64752;48.870;9.082;2023-04-03T07:14:23;5.30;;;2.13;;
76053;SDS011;64752;48.870;9.082;2023-04-03T07:16:48;4.75;;;2.33;;
76053;SDS011;64752;48.870;9.082;2023-04-03T07:19:13;5.20;;;2.50;;
76053;SDS011;64752;48.870;9.082;2023-04-03T07:21:39;6.85;;;2.55;;
76053;SDS011;64752;48.870;9.082;2023-04-03T07:24:06;9.43;;;2.50;;
76053;SDS011;64752;48.870;9.082;2023-04-03T07:26:32;6.25;;;2.60;;
76053;SDS011;64752;48.870;9.082;2023-04-03T07:28:57;9.07;;;2.60;;
76053;SDS011;64752;48.870;9.082;2023-04-03T07:31:22;5.32;;;2.20;;
76053;SDS011;64752;48.870;9.082;2023-04-03T07:33:47;5.80;;;2.13;;
76053;SDS011;64752;48.870;9.082;2023-04-03T07:36:17;4.45;;;2.10;;
76053;SDS011;64752;48.870;9.082;2023-04-03T07:38:43;5.25;;;2.28;;
76053;SDS011;64752;48.870;9.082;2023-04-03T07:41:10;4.05;;;2.35;;
76053;SDS011;64752;48.870;9.082;2023-04-03T07:43:37;4.45;;;2.30;;
76053;SDS011;64752;48.870;9.082;2023-04-03T07:46:04;5.43;;;2.13;;
76053;SDS011;64752;48.870;9.082;2023-04-03T07:50:58;6.55;;;2.17;;
76053;SDS011;64752;48.870;9.082;2023-04-03T07:53:23;7.95;;;2.58;;
76053;SDS011;64752;48.870;9.082;2023-04-03T07:55:48;5.28;;;2.03;;
76053;SDS011;64752;48.870;9.082;2023-04-03T07:58:16;5.10;;;2.40;;
76053;SDS011;64752;48.870;9.082;2023-04-03T08:00:43;3.50;;;1.85;;
76053;SDS011;64752;48.870;9.082;2023-04-03T08:03:09;3.53;;;1.90;;
76053;SDS011;64752;48.870;9.082;2023-04-03T08:05:38;6.67;;;2.10;;
76053;SDS011;64752;48.870;9.082;2023-04-03T08:08:04;6.90;;;2.30;;
76053;SDS011;64752;48.870;9.082;2023-04-03T08:10:30;6.60;;;2.33;;
76053;SDS011;64752;48.870;9.082;2023-04-03T08:12:55;3.15;;;1.90;;
76053;SDS011;64752;48.870;9.082;2023-04-03T08:15:21;7.47;;;2.27;;
76053;SDS011;64752;48.870;9.082;2023-04-03T08:17:46;5.22;;;1.92;;
76053;SDS011;64752;48.870;9.082;2023-04-03T08:20:11;7.07;;;1.88;;
76053;SDS011;64752;48.870;9.082;2023-04-03T08:22:37;6.13;;;2.30;;
76053;SDS011;64752;48.870;9.082;2023-04-03T08:25:02;4.55;;;2.03;;
76053;SDS011;64752;48.870;9.082;2023-04-03T08:27:28;4.35;;;1.95;;
76053;SDS011;64752;48.870;9.082;2023-04-03T08:29:53;3.95;;;2.15;;
76053;SDS011;64752;48.870;9.082;2023-04-03T08:32:19;3.78;;;1.80;;
76053;SDS011;64752;48.870;9.082;2023-04-03T08:34:44;4.38;;;2.40;;
76053;SDS011;64752;48.870;9.082;2023-04-03T08:37:09;5.80;;;1.90;;
76053;SDS011;64752;48.870;9.082;2023-04-03T08:39:35;4.82;;;1.90;;
76053;SDS011;64752;48.870;9.082;2023-04-03T08:42:02;5.43;;;2.00;;
76053;SDS011;64752;48.870;9.082;2023-04-03T08:49:57;5.80;;;1.75;;
76053;SDS011;64752;48.870;9.082;2023-04-03T08:52:27;5.68;;;2.10;;
76053;SDS011;64752;48.870;9.082;2023-04-03T08:55:00;5.20;;;1.95;;
76053;SDS011;64752;48.870;9.082;2023-04-03T08:59:54;5.95;;;2.03;;
76053;SDS011;64752;48.870;9.082;2023-04-03T09:04:48;5.05;;;1.92;;
76053;SDS011;64752;48.870;9.082;2023-04-03T09:07:15;7.65;;;2.30;;
76053;SDS011;64752;48.870;9.082;2023-04-03T09:09:44;3.30;;;1.70;;
76053;SDS011;64752;48.870;9.082;2023-04-03T09:19:41;4.03;;;1.92;;
76053;SDS011;64752;48.870;9.082;2023-04-03T09:22:16;7.13;;;1.92;;
76053;SDS011;64752;48.870;9.082;2023-04-03T09:24:43;5.75;;;2.00;;
76053;SDS011;64752;48.870;9.082;2023-04-03T09:29:35;5.00;;;1.85;;
76053;SDS011;64752;48.870;9.082;2023-04-03T09:32:08;4.40;;;1.95;;
76053;SDS011;64752;48.870;9.082;2023-04-03T09:34:37;4.88;;;1.60;;
76053;SDS011;64752;48.870;9.082;2023-04-03T09:37:06;4.35;;;2.05;;
76053;SDS011;64752;48.870;9.082;2023-04-03T09:39:33;5.23;;;2.23;;
76053;SDS011;64752;48.870;9.082;2023-04-03T09:42:16;2.67;;;1.45;;
76053;SDS011;64752;48.870;9.082;2023-04-03T09:44:44;3.92;;;1.95;;
76053;SDS011;64752;48.870;9.082;2023-04-03T09:47:27;4.63;;;1.55;;
76053;SDS011;64752;48.870;9.082;2023-04-03T09:50:15;5.88;;;1.77;;
76053;SDS011;64752;48.870;9.082;2023-04-03T09:52:45;3.58;;;1.67;;
76053;SDS011;64752;48.870;9.082;2023-04-03T09:57:39;3.55;;;1.77;;
76053;SDS011;64752;48.870;9.082;2023-04-03T10:00:05;3.20;;;1.27;;
76053;SDS011;64752;48.870;9.082;2023-04-03T10:02:40;3.97;;;1.70;;
76053;SDS011;64752;48.870;9.082;2023-04-03T10:07:51;3.47;;;1.70;;
76053;SDS011;64752;48.870;9.082;2023-04-03T10:10:20;4.97;;;1.52;;
76053;SDS011;64752;48.870;9.082;2023-04-03T10:12:47;4.82;;;1.67;;
76053;SDS011;64752;48.870;9.082;2023-04-03T10:15:14;3.07;;;1.60;;
76053;SDS011;64752;48.870;9.082;2023-04-03T10:25:47;3.35;;;1.23;;
76053;SDS011;64752;48.870;9.082;2023-04-03T10:32:58;5.57;;;1.50;;
76053;SDS011;64752;48.870;9.082;2023-04-03T10:35:35;2.90;;;1.45;;
76053;SDS011;64752;48.870;9.082;2023-04-03T10:41:04;4.28;;;1.60;;
76053;SDS011;64752;48.870;9.082;2023-04-03T10:43:42;3.92;;;1.40;;
76053;SDS011;64752;48.870;9.082;2023-04-03T10:46:28;3.30;;;1.35;;
76053;SDS011;64752;48.870;9.082;2023-04-03T10:51:27;4.38;;;1.60;;
76053;SDS011;64752;48.870;9.082;2023-04-03T10:53:56;4.10;;;1.80;;
76053;SDS011;64752;48.870;9.082;2023-04-03T10:58:59;2.28;;;1.40;;
76053;SDS011;64752;48.870;9.082;2023-04-03T11:01:29;4.15;;;1.73;;
76053;SDS011;64752;48.870;9.082;2023-04-03T11:03:57;3.15;;;1.20;;
76053;SDS011;64752;48.870;9.082;2023-04-03T11:06:30;3.97;;;1.25;;
76053;SDS011;64752;48.870;9.082;2023-04-03T11:08:57;2.85;;;1.45;;
76053;SDS011;64752;48.870;9.082;2023-04-03T11:11:33;4.43;;;1.40;;
76053;SDS011;64752;48.870;9.082;2023-04-03T11:16:29;4.10;;;1.30;;
76053;SDS011;64752;48.870;9.082;2023-04-03T11:21:24;5.15;;;1.38;;
76053;SDS011;64752;48.870;9.082;2023-04-03T11:23:54;6.18;;;1.35;;
76053;SDS011;64752;48.870;9.082;2023-04-03T11:26:22;2.53;;;1.02;;
76053;SDS011;64752;48.870;9.082;2023-04-03T11:28:52;3.85;;;1.50;;
76053;SDS011;64752;48.870;9.082;2023-04-03T11:34:05;3.97;;;1.63;;
76053;SDS011;64752;48.870;9.082;2023-04-03T11:36:33;3.67;;;1.35;;
76053;SDS011;64752;48.870;9.082;2023-04-03T11:39:14;2.60;;;1.27;;
76053;SDS011;64752;48.870;9.082;2023-04-03T11:41:40;4.40;;;1.85;;
76053;SDS011;64752;48.870;9.082;2023-04-03T11:44:13;3.60;;;1.52;;
76053;SDS011;64752;48.870;9.082;2023-04-03T11:52:03;5.90;;;2.08;;
76053;SDS011;64752;48.870;9.082;2023-04-03T11:54:35;4.05;;;1.55;;
76053;SDS011;64752;48.870;9.082;2023-04-03T11:57:09;4.55;;;1.48;;
76053;SDS011;64752;48.870;9.082;2023-04-03T11:59:45;2.50;;;1.40;;
76053;SDS011;64752;48.870;9.082;2023-04-03T12:02:44;5.57;;;1.87;;
76053;SDS011;64752;48.870;9.082;2023-04-03T12:08:15;3.85;;;1.77;;
76053;SDS011;64752;48.870;9.082;2023-04-03T12:10:32;2.95;;;1.55;;
76053;SDS011;64752;48.870;9.082;2023-04-03T12:12:57;4.22;;;1.63;;
76053;SDS011;64752;48.870;9.082;2023-04-03T12:15:41;4.82;;;2.92;;
76053;SDS011;64752;48.870;9.082;2023-04-03T12:26:00;3.15;;;1.40;;
76053;SDS011;64752;48.870;9.082;2023-04-03T12:28:26;7.93;;;1.58;;
76053;SDS011;64752;48.870;9.082;2023-04-03T12:30:51;2.95;;;1.60;;
76053;SDS011;64752;48.870;9.082;2023-04-03T12:33:20;4.13;;;1.80;;
76053;SDS011;64752;48.870;9.082;2023-04-03T12:36:07;3.13;;;1.52;;
76053;SDS011;64752;48.870;9.082;2023-04-03T12:46:22;2.58;;;1.35;;
76053;SDS011;64752;48.870;9.082;2023-04-03T12:48:51;3.47;;;1.50;;
76053;SDS011;64752;48.870;9.082;2023-04-03T12:51:19;2.65;;;1.48;;
76053;SDS011;64752;48.870;9.082;2023-04-03T12:53:46;6.68;;;1.60;;
76053;SDS011;64752;48.870;9.082;2023-04-03T12:56:25;3.25;;;1.55;;
76053;SDS011;64752;48.870;9.082;2023-04-03T12:58:51;2.10;;;1.05;;
76053;SDS011;64752;48.870;9.082;2023-04-03T13:01:18;3.97;;;1.40;;
76053;SDS011;64752;48.870;9.082;2023-04-03T13:03:47;2.33;;;1.20;;
76053;SDS011;64752;48.870;9.082;2023-04-03T13:06:23;4.47;;;1.30;;
76053;SDS011;64752;48.870;9.082;2023-04-03T13:08:52;8.13;;;1.80;;
76053;SDS011;64752;48.870;9.082;2023-04-03T13:11:17;4.60;;;1.50;;
76053;SDS011;64752;48.870;9.082;2023-04-03T13:14:01;2.70;;;1.30;;
76053;SDS011;64752;48.870;9.082;2023-04-03T13:16:27;4.38;;;1.65;;
76053;SDS011;64752;48.870;9.082;2023-04-03T13:18:52;5.68;;;1.65;;
76053;SDS011;64752;48.870;9.082;2023-04-03T13:21:19;4.20;;;1.52;;
76053;SDS011;64752;48.870;9.082;2023-04-03T13:23:47;2.22;;;1.40;;
76053;SDS011;64752;48.870;9.082;2023-04-03T13:28:39;2.80;;;1.27;;
76053;SDS011;64752;48.870;9.082;2023-04-03T13:33:31;8.57;;;1.77;;
76053;SDS011;64752;48.870;9.082;2023-04-03T13:36:03;3.03;;;1.55;;
76053;SDS011;64752;48.870;9.082;2023-04-03T13:38:29;3.10;;;1.30;;
76053;SDS011;64752;48.870;9.082;2023-04-03T13:40:58;4.40;;;1.48;;
76053;SDS011;64752;48.870;9.082;2023-04-03T13:43:29;3.75;;;1.58;;
76053;SDS011;64752;48.870;9.082;2023-04-03T13:48:37;2.53;;;1.35;;
76053;SDS011;64752;48.870;9.082;2023-04-03T13:51:04;5.93;;;1.58;;
76053;SDS011;64752;48.870;9.082;2023-04-03T13:53:30;3.80;;;1.85;;
76053;SDS011;64752;48.870;9.082;2023-04-03T13:58:27;3.40;;;1.40;;
76053;SDS011;64752;48.870;9.082;2023-04-03T14:03:41;3.83;;;1.40;;
76053;SDS011;64752;48.870;9.082;2023-04-03T14:06:05;6.53;;;1.85;;
76053;SDS011;64752;48.870;9.082;2023-04-03T14:08:31;4.47;;;1.58;;
76053;SDS011;64752;48.870;9.082;2023-04-03T14:10:56;3.55;;;1.40;;
76053;SDS011;64752;48.870;9.082;2023-04-03T14:13:21;3.65;;;1.83;;
76053;SDS011;64752;48.870;9.082;2023-04-03T14:15:47;5.20;;;1.88;;
76053;SDS011;64752;48.870;9.082;2023-04-03T14:18:14;3.33;;;1.58;;
76053;SDS011;64752;48.870;9.082;2023-04-03T14:20:39;2.80;;;1.50;;
76053;SDS011;64752;48.870;9.082;2023-04-03T14:23:05;2.92;;;1.63;;
76053;SDS011;64752;48.870;9.082;2023-04-03T14:25:31;4.40;;;1.40;;
76053;SDS011;64752;48.870;9.082;2023-04-03T14:27:56;3.97;;;1.80;;
76053;SDS011;64752;48.870;9.082;2023-04-03T14:32:48;1.65;;;1.33;;
76053;SDS011;64752;48.870;9.082;2023-04-03T14:35:13;3.78;;;1.70;;
76053;SDS011;64752;48.870;9.082;2023-04-03T14:37:39;5.20;;;1.70;;
76053;SDS011;64752;48.870;9.082;2023-04-03T14:40:05;3.30;;;1.60;;
76053;SDS011;64752;48.870;9.082;2023-04-03T14:42:31;3.00;;;1.63;;
76053;SDS011;64752;48.870;9.082;2023-04-03T14:44:58;4.10;;;1.48;;
76053;SDS011;64752;48.870;9.082;2023-04-03T14:47:24;4.67;;;2.07;;
76053;SDS011;64752;48.870;9.082;2023-04-03T14:49:51;4.45;;;1.58;;
76053;SDS011;64752;48.870;9.082;2023-04-03T14:52:20;2.63;;;1.45;;
76053;SDS011;64752;48.870;9.082;2023-04-03T14:54:47;3.92;;;1.48;;
76053;SDS011;64752;48.870;9.082;2023-04-03T14:57:13;4.70;;;1.55;;
76053;SDS011;64752;48.870;9.082;2023-04-03T14:59:45;3.42;;;1.50;;
76053;SDS011;64752;48.870;9.082;2023-04-03T15:02:30;2.92;;;1.30;;
76053;SDS011;64752;48.870;9.082;2023-04-03T15:04:58;6.78;;;1.80;;
76053;SDS011;64752;48.870;9.082;2023-04-03T15:07:24;2.88;;;1.42;;
76053;SDS011;64752;48.870;9.082;2023-04-03T15:09:50;4.03;;;1.77;;
76053;SDS011;64752;48.870;9.082;2023-04-03T15:12:15;3.55;;;1.75;;
76053;SDS011;64752;48.870;9.082;2023-04-03T15:14:40;5.63;;;2.10;;
76053;SDS011;64752;48.870;9.082;2023-04-03T15:17:06;6.72;;;2.05;;
76053;SDS011;64752;48.870;9.082;2023-04-03T15:19:38;5.00;;;1.98;;
76053;SDS011;64752;48.870;9.082;2023-04-03T15:22:03;4.85;;;2.58;;
76053;SDS011;64752;48.870;9.082;2023-04-03T15:24:28;4.57;;;2.35;;
76053;SDS011;64752;48.870;9.082;2023-04-03T15:26:54;4.82;;;2.38;;
76053;SDS011;64752;48.870;9.082;2023-04-03T15:29:19;5.85;;;1.80;;
76053;SDS011;64752;48.870;9.082;2023-04-03T15:31:44;4.30;;;1.55;;
76053;SDS011;64752;48.870;9.082;2023-04-03T15:34:09;12.93;;;2.13;;
76053;SDS011;64752;48.870;9.082;2023-04-03T15:36:35;4.40;;;1.65;;
76053;SDS011;64752;48.870;9.082;2023-04-03T15:39:00;6.40;;;1.80;;
76053;SDS011;64752;48.870;9.082;2023-04-03T15:41:25;4.13;;;1.73;;
76053;SDS011;64752;48.870;9.082;2023-04-03T15:43:51;4.10;;;1.70;;
76053;SDS011;64752;48.870;9.082;2023-04-03T15:46:16;4.05;;;2.00;;
76053;SDS011;64752;48.870;9.082;2023-04-03T15:48:41;2.70;;;1.50;;
76053;SDS011;64752;48.870;9.082;2023-04-03T15:51:06;3.20;;;1.50;;
76053;SDS011;64752;48.870;9.082;2023-04-03T15:53:32;3.10;;;1.60;;
76053;SDS011;64752;48.870;9.082;2023-04-03T15:55:57;2.60;;;1.40;;
76053;SDS011;64752;48.870;9.082;2023-04-03T15:58:22;4.55;;;1.73;;
76053;SDS011;64752;48.870;9.082;2023-04-03T16:00:48;5.65;;;2.20;;
76053;SDS011;64752;48.870;9.082;2023-04-03T16:03:17;3.83;;;1.60;;
76053;SDS011;64752;48.870;9.082;2023-04-03T16:05:43;2.75;;;1.50;;
76053;SDS011;64752;48.870;9.082;2023-04-03T16:08:08;6.18;;;1.60;;
76053;SDS011;64752;48.870;9.082;2023-04-03T16:10:34;4.63;;;1.48;;
76053;SDS011;64752;48.870;9.082;2023-04-03T16:12:59;5.17;;;1.70;;
76053;SDS011;64752;48.870;9.082;2023-04-03T16:15:25;5.15;;;1.90;;
76053;SDS011;64752;48.870;9.082;2023-04-03T16:17:51;4.90;;;1.73;;
76053;SDS011;64752;48.870;9.082;2023-04-03T16:20:17;2.38;;;1.60;;
76053;SDS011;64752;48.870;9.082;2023-04-03T16:22:43;2.75;;;1.75;;
76053;SDS011;64752;48.870;9.082;2023-04-03T16:25:09;4.75;;;1.60;;
76053;SDS011;64752;48.870;9.082;2023-04-03T16:27:34;3.70;;;1.60;;
76053;SDS011;64752;48.870;9.082;2023-04-03T16:30:00;3.92;;;1.90;;
76053;SDS011;64752;48.870;9.082;2023-04-03T16:32:26;4.85;;;1.80;;